sensor_id;sensor_type;location;lat;lon;timestamp;temperature;humidity
5210;DHT22;2624;48.048;11.706;2022-07-29T00:00:27;22.00;96.20
5210;DHT22;2624;48.048;11.706;2022-07-29T00:05:30;21.70;96.10
5210;DHT22;2624;48.048;11.706;2022-07-29T00:10:32;21.60;96.70
5210;DHT22;2624;48.048;11.706;2022-07-29T00:15:34;21.70;96.60
5210;DHT22;2624;48.048;11.706;2022-07-29T00:20:37;21.40;97.30
5210;DHT22;2624;48.048;11.706;2022-07-29T00:25:39;21.40;97.20
5210;DHT22;2624;48.048;11.706;2022-07-29T00:30:41;21.40;97.40
5210;DHT22;2624;48.048;11.706;2022-07-29T00:35:44;21.60;97.40
5210;DHT22;2624;48.048;11.706;2022-07-29T00:40:47;21.60;97.20
5210;DHT22;2624;48.048;11.706;2022-07-29T00:45:48;21.40;97.30
5210;DHT22;2624;48.048;11.706;2022-07-29T00:50:52;21.30;97.60
5210;DHT22;2624;48.048;11.706;2022-07-29T00:55:54;21.40;97.80
5210;DHT22;2624;48.048;11.706;2022-07-29T01:00:56;21.30;98.00
5210;DHT22;2624;48.048;11.706;2022-07-29T01:06:00;21.20;98.20
5210;DHT22;2624;48.048;11.706;2022-07-29T01:11:02;21.00;98.60
5210;DHT22;2624;48.048;11.706;2022-07-29T01:16:10;21.10;98.60
5210;DHT22;2624;48.048;11.706;2022-07-29T01:21:27;20.90;98.90
5210;DHT22;2624;48.048;11.706;2022-07-29T01:26:45;20.80;98.70
5210;DHT22;2624;48.048;11.706;2022-07-29T01:31:55;21.00;98.60
5210;DHT22;2624;48.048;11.706;2022-07-29T01:37:06;21.00;98.80
5210;DHT22;2624;48.048;11.706;2022-07-29T01:42:14;21.00;98.70
5210;DHT22;2624;48.048;11.706;2022-07-29T01:47:21;21.10;98.80
5210;DHT22;2624;48.048;11.706;2022-07-29T01:52:31;20.90;99.10
5210;DHT22;2624;48.048;11.706;2022-07-29T01:57:36;20.70;99.40
5210;DHT22;2624;48.048;11.706;2022-07-29T02:02:42;20.80;99.40
5210;DHT22;2624;48.048;11.706;2022-07-29T02:07:46;20.80;99.30
5210;DHT22;2624;48.048;11.706;2022-07-29T02:12:48;20.80;99.10
5210;DHT22;2624;48.048;11.706;2022-07-29T02:17:56;21.10;98.70
5210;DHT22;2624;48.048;11.706;2022-07-29T02:22:59;21.20;98.60
5210;DHT22;2624;48.048;11.706;2022-07-29T02:28:02;20.80;99.30
5210;DHT22;2624;48.048;11.706;2022-07-29T02:33:08;20.60;99.70
5210;DHT22;2624;48.048;11.706;2022-07-29T02:38:12;20.50;99.90
5210;DHT22;2624;48.048;11.706;2022-07-29T02:43:33;20.50;99.90
5210;DHT22;2624;48.048;11.706;2022-07-29T02:48:41;20.30;99.90
5210;DHT22;2624;48.048;11.706;2022-07-29T02:53:50;20.20;99.90
5210;DHT22;2624;48.048;11.706;2022-07-29T02:58:55;20.10;99.90
5210;DHT22;2624;48.048;11.706;2022-07-29T03:04:01;20.10;99.90
5210;DHT22;2624;48.048;11.706;2022-07-29T03:09:05;20.10;99.90
5210;DHT22;2624;48.048;11.706;2022-07-29T03:14:07;20.10;99.90
5210;DHT22;2624;48.048;11.706;2022-07-29T03:19:11;20.00;99.90
5210;DHT22;2624;48.048;11.706;2022-07-29T03:24:25;20.10;99.90
5210;DHT22;2624;48.048;11.706;2022-07-29T03:29:27;20.50;99.90
5210;DHT22;2624;48.048;11.706;2022-07-29T03:34:31;20.20;99.90
5210;DHT22;2624;48.048;11.706;2022-07-29T03:39:35;20.50;99.90
5210;DHT22;2624;48.048;11.706;2022-07-29T03:44:38;20.30;99.90
5210;DHT22;2624;48.048;11.706;2022-07-29T03:49:44;20.30;99.90
5210;DHT22;2624;48.048;11.706;2022-07-29T03:54:48;20.50;99.90
5210;DHT22;2624;48.048;11.706;2022-07-29T03:59:51;19.90;99.90
5210;DHT22;2624;48.048;11.706;2022-07-29T04:04:55;19.50;99.90
5210;DHT22;2624;48.048;11.706;2022-07-29T04:09:56;19.60;99.90
5210;DHT22;2624;48.048;11.706;2022-07-29T04:14:58;19.70;99.90
5210;DHT22;2624;48.048;11.706;2022-07-29T04:20:02;19.50;99.90
5210;DHT22;2624;48.048;11.706;2022-07-29T04:25:04;19.50;99.90
5210;DHT22;2624;48.048;11.706;2022-07-29T04:30:07;20.00;99.90
5210;DHT22;2624;48.048;11.706;2022-07-29T04:35:10;19.80;99.90
5210;DHT22;2624;48.048;11.706;2022-07-29T04:40:12;20.00;99.90
5210;DHT22;2624;48.048;11.706;2022-07-29T04:45:13;19.80;99.90
5210;DHT22;2624;48.048;11.706;2022-07-29T04:50:17;20.10;99.90
5210;DHT22;2624;48.048;11.706;2022-07-29T04:55:19;20.10;99.90
5210;DHT22;2624;48.048;11.706;2022-07-29T05:00:20;20.10;99.90
5210;DHT22;2624;48.048;11.706;2022-07-29T05:05:24;20.10;99.90
5210;DHT22;2624;48.048;11.706;2022-07-29T05:10:26;19.90;99.90
5210;DHT22;2624;48.048;11.706;2022-07-29T05:15:29;19.70;99.90
5210;DHT22;2624;48.048;11.706;2022-07-29T05:20:32;19.80;99.90
5210;DHT22;2624;48.048;11.706;2022-07-29T05:25:35;20.00;99.90
5210;DHT22;2624;48.048;11.706;2022-07-29T05:30:36;20.00;99.90
5210;DHT22;2624;48.048;11.706;2022-07-29T05:35:39;19.80;99.90
5210;DHT22;2624;48.048;11.706;2022-07-29T05:40:41;19.70;99.90
5210;DHT22;2624;48.048;11.706;2022-07-29T05:45:43;19.50;99.90
5210;DHT22;2624;48.048;11.706;2022-07-29T05:50:46;19.40;99.90
5210;DHT22;2624;48.048;11.706;2022-07-29T05:55:48;19.40;99.90
5210;DHT22;2624;48.048;11.706;2022-07-29T06:00:49;19.50;99.90
5210;DHT22;2624;48.048;11.706;2022-07-29T06:05:53;19.60;99.90
5210;DHT22;2624;48.048;11.706;2022-07-29T06:10:54;19.60;99.90
5210;DHT22;2624;48.048;11.706;2022-07-29T06:15:56;19.60;99.90
5210;DHT22;2624;48.048;11.706;2022-07-29T06:20:59;19.60;99.90
5210;DHT22;2624;48.048;11.706;2022-07-29T06:26:01;19.80;99.90
5210;DHT22;2624;48.048;11.706;2022-07-29T06:31:03;19.70;99.90
5210;DHT22;2624;48.048;11.706;2022-07-29T06:36:07;19.70;99.90
5210;DHT22;2624;48.048;11.706;2022-07-29T06:41:08;19.80;99.90
5210;DHT22;2624;48.048;11.706;2022-07-29T06:46:14;19.90;99.90
5210;DHT22;2624;48.048;11.706;2022-07-29T06:51:19;20.00;99.90
5210;DHT22;2624;48.048;11.706;2022-07-29T06:56:21;20.10;99.90
5210;DHT22;2624;48.048;11.706;2022-07-29T07:01:23;20.10;99.90
5210;DHT22;2624;48.048;11.706;2022-07-29T07:06:26;20.20;99.90
5210;DHT22;2624;48.048;11.706;2022-07-29T07:11:28;20.30;99.90
5210;DHT22;2624;48.048;11.706;2022-07-29T07:16:30;20.40;99.90
5210;DHT22;2624;48.048;11.706;2022-07-29T07:21:34;20.50;99.90
5210;DHT22;2624;48.048;11.706;2022-07-29T07:26:35;20.50;99.90
5210;DHT22;2624;48.048;11.706;2022-07-29T07:31:38;20.60;99.90
5210;DHT22;2624;48.048;11.706;2022-07-29T07:36:41;20.70;99.90
5210;DHT22;2624;48.048;11.706;2022-07-29T07:41:43;20.80;99.90
5210;DHT22;2624;48.048;11.706;2022-07-29T07:46:44;20.80;99.90
5210;DHT22;2624;48.048;11.706;2022-07-29T07:51:47;20.70;99.90
5210;DHT22;2624;48.048;11.706;2022-07-29T07:56:49;21.10;99.90
5210;DHT22;2624;48.048;11.706;2022-07-29T08:01:51;20.90;99.90
5210;DHT22;2624;48.048;11.706;2022-07-29T08:06:55;21.20;99.90
5210;DHT22;2624;48.048;11.706;2022-07-29T08:11:57;21.10;99.90
5210;DHT22;2624;48.048;11.706;2022-07-29T08:16:59;21.20;99.90
5210;DHT22;2624;48.048;11.706;2022-07-29T08:22:02;21.70;99.10
5210;DHT22;2624;48.048;11.706;2022-07-29T08:27:04;21.50;99.30
5210;DHT22;2624;48.048;11.706;2022-07-29T08:32:06;21.80;99.20
5210;DHT22;2624;48.048;11.706;2022-07-29T08:37:09;21.90;99.00
5210;DHT22;2624;48.048;11.706;2022-07-29T08:42:11;21.60;99.70
5210;DHT22;2624;48.048;11.706;2022-07-29T08:47:14;22.00;98.40
5210;DHT22;2624;48.048;11.706;2022-07-29T08:52:18;21.70;98.80
5210;DHT22;2624;48.048;11.706;2022-07-29T08:57:21;21.80;98.60
5210;DHT22;2624;48.048;11.706;2022-07-29T09:02:24;21.90;98.50
5210;DHT22;2624;48.048;11.706;2022-07-29T09:07:29;22.00;98.60
5210;DHT22;2624;48.048;11.706;2022-07-29T09:12:31;22.00;98.60
5210;DHT22;2624;48.048;11.706;2022-07-29T09:17:40;22.10;98.80
5210;DHT22;2624;48.048;11.706;2022-07-29T09:22:43;22.20;98.60
5210;DHT22;2624;48.048;11.706;2022-07-29T09:27:50;22.30;98.90
5210;DHT22;2624;48.048;11.706;2022-07-29T09:32:55;22.80;98.30
5210;DHT22;2624;48.048;11.706;2022-07-29T09:38:10;23.70;97.30
5210;DHT22;2624;48.048;11.706;2022-07-29T09:43:13;23.70;96.40
5210;DHT22;2624;48.048;11.706;2022-07-29T09:48:16;23.50;97.00
5210;DHT22;2624;48.048;11.706;2022-07-29T09:53:31;23.60;96.60
5210;DHT22;2624;48.048;11.706;2022-07-29T09:58:33;23.60;96.70
5210;DHT22;2624;48.048;11.706;2022-07-29T10:03:50;23.20;97.80
5210;DHT22;2624;48.048;11.706;2022-07-29T10:08:53;23.60;97.00
5210;DHT22;2624;48.048;11.706;2022-07-29T10:13:55;23.60;97.00
5210;DHT22;2624;48.048;11.706;2022-07-29T10:18:57;23.40;97.30
5210;DHT22;2624;48.048;11.706;2022-07-29T10:24:01;23.60;97.00
5210;DHT22;2624;48.048;11.706;2022-07-29T10:29:03;23.50;97.50
5210;DHT22;2624;48.048;11.706;2022-07-29T10:34:10;23.50;97.50
5210;DHT22;2624;48.048;11.706;2022-07-29T10:39:30;23.40;97.90
5210;DHT22;2624;48.048;11.706;2022-07-29T10:44:34;23.70;96.80
5210;DHT22;2624;48.048;11.706;2022-07-29T10:49:36;23.50;97.40
5210;DHT22;2624;48.048;11.706;2022-07-29T10:54:48;23.40;97.50
5210;DHT22;2624;48.048;11.706;2022-07-29T11:00:27;23.30;97.90
5210;DHT22;2624;48.048;11.706;2022-07-29T11:05:29;23.40;98.10
5210;DHT22;2624;48.048;11.706;2022-07-29T11:10:33;23.40;98.10
5210;DHT22;2624;48.048;11.706;2022-07-29T11:15:52;23.50;97.80
5210;DHT22;2624;48.048;11.706;2022-07-29T11:20:54;23.50;97.80
5210;DHT22;2624;48.048;11.706;2022-07-29T11:26:16;24.10;94.90
5210;DHT22;2624;48.048;11.706;2022-07-29T11:31:33;24.70;95.50
5210;DHT22;2624;48.048;11.706;2022-07-29T11:36:35;24.70;95.00
5210;DHT22;2624;48.048;11.706;2022-07-29T11:42:45;24.70;95.40
5210;DHT22;2624;48.048;11.706;2022-07-29T11:47:49;25.00;94.80
5210;DHT22;2624;48.048;11.706;2022-07-29T11:52:51;25.30;94.10
5210;DHT22;2624;48.048;11.706;2022-07-29T11:57:57;24.90;94.70
5210;DHT22;2624;48.048;11.706;2022-07-29T12:03:01;25.00;93.00
5210;DHT22;2624;48.048;11.706;2022-07-29T12:08:12;25.30;93.20
5210;DHT22;2624;48.048;11.706;2022-07-29T12:13:16;24.90;92.10
5210;DHT22;2624;48.048;11.706;2022-07-29T12:18:19;25.10;91.50
5210;DHT22;2624;48.048;11.706;2022-07-29T12:23:21;25.30;91.80
5210;DHT22;2624;48.048;11.706;2022-07-29T12:28:24;25.30;92.60
5210;DHT22;2624;48.048;11.706;2022-07-29T12:33:29;24.90;93.80
5210;DHT22;2624;48.048;11.706;2022-07-29T12:38:31;25.00;93.90
5210;DHT22;2624;48.048;11.706;2022-07-29T12:43:34;25.00;94.10
5210;DHT22;2624;48.048;11.706;2022-07-29T12:48:37;25.00;94.10
5210;DHT22;2624;48.048;11.706;2022-07-29T12:53:40;25.00;94.00
5210;DHT22;2624;48.048;11.706;2022-07-29T12:58:43;24.90;94.10
5210;DHT22;2624;48.048;11.706;2022-07-29T13:03:47;25.50;93.10
5210;DHT22;2624;48.048;11.706;2022-07-29T13:08:59;25.50;92.30
5210;DHT22;2624;48.048;11.706;2022-07-29T13:14:02;25.00;93.60
5210;DHT22;2624;48.048;11.706;2022-07-29T13:19:09;25.40;90.80
5210;DHT22;2624;48.048;11.706;2022-07-29T13:24:12;25.30;92.30
5210;DHT22;2624;48.048;11.706;2022-07-29T13:29:15;25.40;91.20
5210;DHT22;2624;48.048;11.706;2022-07-29T13:34:17;25.40;91.60
5210;DHT22;2624;48.048;11.706;2022-07-29T13:39:20;25.30;91.00
5210;DHT22;2624;48.048;11.706;2022-07-29T13:44:23;25.30;91.20
5210;DHT22;2624;48.048;11.706;2022-07-29T13:49:24;25.30;91.10
5210;DHT22;2624;48.048;11.706;2022-07-29T13:54:26;25.30;92.10
5210;DHT22;2624;48.048;11.706;2022-07-29T13:59:29;25.30;91.80
5210;DHT22;2624;48.048;11.706;2022-07-29T14:04:31;25.10;92.10
5210;DHT22;2624;48.048;11.706;2022-07-29T14:09:33;25.10;92.50
5210;DHT22;2624;48.048;11.706;2022-07-29T14:14:36;25.20;92.90
5210;DHT22;2624;48.048;11.706;2022-07-29T14:19:38;25.20;92.60
5210;DHT22;2624;48.048;11.706;2022-07-29T14:24:40;25.10;92.80
5210;DHT22;2624;48.048;11.706;2022-07-29T14:29:43;25.10;92.90
5210;DHT22;2624;48.048;11.706;2022-07-29T14:34:45;25.00;93.10
5210;DHT22;2624;48.048;11.706;2022-07-29T14:39:47;25.30;92.70
5210;DHT22;2624;48.048;11.706;2022-07-29T14:44:50;25.30;92.60
5210;DHT22;2624;48.048;11.706;2022-07-29T14:49:51;25.30;92.70
5210;DHT22;2624;48.048;11.706;2022-07-29T14:54:53;25.30;92.80
5210;DHT22;2624;48.048;11.706;2022-07-29T14:59:56;25.30;93.00
5210;DHT22;2624;48.048;11.706;2022-07-29T15:04:58;25.30;93.00
5210;DHT22;2624;48.048;11.706;2022-07-29T15:10:00;25.20;93.00
5210;DHT22;2624;48.048;11.706;2022-07-29T15:15:04;25.20;93.10
5210;DHT22;2624;48.048;11.706;2022-07-29T15:20:08;25.10;93.30
5210;DHT22;2624;48.048;11.706;2022-07-29T15:25:11;25.10;93.40
5210;DHT22;2624;48.048;11.706;2022-07-29T15:30:14;25.20;93.50
5210;DHT22;2624;48.048;11.706;2022-07-29T15:35:17;25.10;93.50
5210;DHT22;2624;48.048;11.706;2022-07-29T15:40:19;25.10;93.60
5210;DHT22;2624;48.048;11.706;2022-07-29T15:45:22;25.00;93.60
5210;DHT22;2624;48.048;11.706;2022-07-29T15:50:23;25.10;93.60
5210;DHT22;2624;48.048;11.706;2022-07-29T15:55:25;25.10;93.50
5210;DHT22;2624;48.048;11.706;2022-07-29T16:00:28;25.10;93.30
5210;DHT22;2624;48.048;11.706;2022-07-29T16:05:30;25.10;93.00
5210;DHT22;2624;48.048;11.706;2022-07-29T16:10:32;25.00;93.20
5210;DHT22;2624;48.048;11.706;2022-07-29T16:15:35;25.00;93.40
5210;DHT22;2624;48.048;11.706;2022-07-29T16:20:37;25.00;93.10
5210;DHT22;2624;48.048;11.706;2022-07-29T16:25:39;24.90;93.60
5210;DHT22;2624;48.048;11.706;2022-07-29T16:30:42;24.90;94.10
5210;DHT22;2624;48.048;11.706;2022-07-29T16:35:44;24.80;94.80
5210;DHT22;2624;48.048;11.706;2022-07-29T16:40:46;24.70;95.00
5210;DHT22;2624;48.048;11.706;2022-07-29T16:45:49;24.70;95.00
5210;DHT22;2624;48.048;11.706;2022-07-29T16:50:50;24.70;95.30
5210;DHT22;2624;48.048;11.706;2022-07-29T16:55:52;24.70;95.90
5210;DHT22;2624;48.048;11.706;2022-07-29T17:00:56;24.50;96.20
5210;DHT22;2624;48.048;11.706;2022-07-29T17:05:58;24.50;96.20
5210;DHT22;2624;48.048;11.706;2022-07-29T17:10:59;24.40;97.00
5210;DHT22;2624;48.048;11.706;2022-07-29T17:16:03;24.30;97.80
5210;DHT22;2624;48.048;11.706;2022-07-29T17:21:05;24.30;98.60
5210;DHT22;2624;48.048;11.706;2022-07-29T17:26:06;24.20;98.60
5210;DHT22;2624;48.048;11.706;2022-07-29T17:31:09;24.10;98.20
5210;DHT22;2624;48.048;11.706;2022-07-29T17:36:11;24.10;97.90
5210;DHT22;2624;48.048;11.706;2022-07-29T17:41:26;24.10;97.60
5210;DHT22;2624;48.048;11.706;2022-07-29T17:46:29;23.80;97.30
5210;DHT22;2624;48.048;11.706;2022-07-29T17:51:31;23.40;97.70
5210;DHT22;2624;48.048;11.706;2022-07-29T17:56:33;23.60;97.80
5210;DHT22;2624;48.048;11.706;2022-07-29T18:01:36;23.30;98.50
5210;DHT22;2624;48.048;11.706;2022-07-29T18:06:40;23.30;98.80
5210;DHT22;2624;48.048;11.706;2022-07-29T18:11:42;23.30;98.60
5210;DHT22;2624;48.048;11.706;2022-07-29T18:16:45;23.60;98.30
5210;DHT22;2624;48.048;11.706;2022-07-29T18:21:47;23.60;97.90
5210;DHT22;2624;48.048;11.706;2022-07-29T18:26:49;23.50;97.20
5210;DHT22;2624;48.048;11.706;2022-07-29T18:31:52;23.40;97.10
5210;DHT22;2624;48.048;11.706;2022-07-29T18:36:54;23.00;97.30
5210;DHT22;2624;48.048;11.706;2022-07-29T18:41:55;23.10;97.20
5210;DHT22;2624;48.048;11.706;2022-07-29T18:46:58;22.90;97.40
5210;DHT22;2624;48.048;11.706;2022-07-29T18:52:00;23.00;97.40
5210;DHT22;2624;48.048;11.706;2022-07-29T18:57:02;22.70;97.90
5210;DHT22;2624;48.048;11.706;2022-07-29T19:02:06;22.70;98.10
5210;DHT22;2624;48.048;11.706;2022-07-29T19:07:07;22.70;98.50
5210;DHT22;2624;48.048;11.706;2022-07-29T19:12:09;22.90;99.40
5210;DHT22;2624;48.048;11.706;2022-07-29T19:17:12;22.70;99.30
5210;DHT22;2624;48.048;11.706;2022-07-29T19:22:14;22.70;99.00
5210;DHT22;2624;48.048;11.706;2022-07-29T19:27:16;22.70;99.10
5210;DHT22;2624;48.048;11.706;2022-07-29T19:32:19;22.40;99.90
5210;DHT22;2624;48.048;11.706;2022-07-29T19:37:21;22.20;99.90
5210;DHT22;2624;48.048;11.706;2022-07-29T19:42:23;21.90;99.90
5210;DHT22;2624;48.048;11.706;2022-07-29T19:47:26;22.10;99.90
5210;DHT22;2624;48.048;11.706;2022-07-29T19:52:28;22.00;99.90
5210;DHT22;2624;48.048;11.706;2022-07-29T19:57:30;21.50;99.90
5210;DHT22;2624;48.048;11.706;2022-07-29T20:02:33;21.50;99.90
5210;DHT22;2624;48.048;11.706;2022-07-29T20:07:35;21.30;99.90
5210;DHT22;2624;48.048;11.706;2022-07-29T20:12:37;21.30;99.90
5210;DHT22;2624;48.048;11.706;2022-07-29T20:17:40;21.00;99.90
5210;DHT22;2624;48.048;11.706;2022-07-29T20:22:42;20.90;99.90
5210;DHT22;2624;48.048;11.706;2022-07-29T20:27:44;20.60;99.90
5210;DHT22;2624;48.048;11.706;2022-07-29T20:32:50;20.70;99.90
5210;DHT22;2624;48.048;11.706;2022-07-29T20:37:51;20.80;99.90
5210;DHT22;2624;48.048;11.706;2022-07-29T20:42:55;20.50;99.90
5210;DHT22;2624;48.048;11.706;2022-07-29T20:47:58;20.40;99.90
5210;DHT22;2624;48.048;11.706;2022-07-29T20:53:02;20.20;99.90
5210;DHT22;2624;48.048;11.706;2022-07-29T20:58:04;20.20;99.90
5210;DHT22;2624;48.048;11.706;2022-07-29T21:03:07;20.00;99.90
5210;DHT22;2624;48.048;11.706;2022-07-29T21:08:09;19.90;99.90
5210;DHT22;2624;48.048;11.706;2022-07-29T21:13:11;19.80;99.90
5210;DHT22;2624;48.048;11.706;2022-07-29T21:18:15;20.10;99.90
5210;DHT22;2624;48.048;11.706;2022-07-29T21:23:27;19.80;99.90
5210;DHT22;2624;48.048;11.706;2022-07-29T21:28:29;19.50;99.90
5210;DHT22;2624;48.048;11.706;2022-07-29T21:33:38;19.60;99.90
5210;DHT22;2624;48.048;11.706;2022-07-29T21:38:40;19.50;99.90
5210;DHT22;2624;48.048;11.706;2022-07-29T21:43:42;19.70;99.90
5210;DHT22;2624;48.048;11.706;2022-07-29T21:48:46;19.50;99.90
5210;DHT22;2624;48.048;11.706;2022-07-29T21:53:48;19.00;99.90
5210;DHT22;2624;48.048;11.706;2022-07-29T21:58:50;18.90;99.90
5210;DHT22;2624;48.048;11.706;2022-07-29T22:03:53;18.70;99.90
5210;DHT22;2624;48.048;11.706;2022-07-29T22:08:55;18.70;99.90
5210;DHT22;2624;48.048;11.706;2022-07-29T22:13:56;18.80;99.90
5210;DHT22;2624;48.048;11.706;2022-07-29T22:19:00;18.80;99.90
5210;DHT22;2624;48.048;11.706;2022-07-29T22:24:03;19.00;99.90
5210;DHT22;2624;48.048;11.706;2022-07-29T22:29:05;18.90;99.90
5210;DHT22;2624;48.048;11.706;2022-07-29T22:34:08;18.90;99.90
5210;DHT22;2624;48.048;11.706;2022-07-29T22:39:12;19.00;99.90
5210;DHT22;2624;48.048;11.706;2022-07-29T22:44:14;19.10;99.90
5210;DHT22;2624;48.048;11.706;2022-07-29T22:49:17;19.10;99.90
5210;DHT22;2624;48.048;11.706;2022-07-29T22:54:19;18.80;99.90
5210;DHT22;2624;48.048;11.706;2022-07-29T22:59:21;18.40;99.90
5210;DHT22;2624;48.048;11.706;2022-07-29T23:04:24;18.30;99.90
5210;DHT22;2624;48.048;11.706;2022-07-29T23:09:25;18.50;99.90
5210;DHT22;2624;48.048;11.706;2022-07-29T23:14:27;18.30;99.90
5210;DHT22;2624;48.048;11.706;2022-07-29T23:19:30;18.20;99.90
5210;DHT22;2624;48.048;11.706;2022-07-29T23:24:32;18.10;99.90
5210;DHT22;2624;48.048;11.706;2022-07-29T23:29:34;18.20;99.90
5210;DHT22;2624;48.048;11.706;2022-07-29T23:34:37;18.10;99.90
5210;DHT22;2624;48.048;11.706;2022-07-29T23:39:39;18.00;99.90
5210;DHT22;2624;48.048;11.706;2022-07-29T23:44:41;18.10;99.90
5210;DHT22;2624;48.048;11.706;2022-07-29T23:49:44;18.30;99.90
5210;DHT22;2624;48.048;11.706;2022-07-29T23:54:49;18.20;99.90
5210;DHT22;2624;48.048;11.706;2022-07-29T23:59:51;18.00;99.90
